createdAt,value
2023-04-29T00:01:40.504Z,101329.34
2023-04-29T00:04:09.531Z,101333.16
2023-04-29T00:06:38.272Z,101329.66
2023-04-29T00:09:06.736Z,101333.88
2023-04-29T00:11:37.680Z,101336.97
2023-04-29T00:14:06.482Z,101338.44
2023-04-29T00:16:35.507Z,101339.28
2023-04-29T00:19:03.853Z,101341.59
2023-04-29T00:21:33.509Z,101341.28
2023-04-29T00:24:02.912Z,101340.53
2023-04-29T00:26:32.049Z,101339.81
2023-04-29T00:29:02.135Z,101341.31
2023-04-29T00:31:32.855Z,101342.75
2023-04-29T00:34:03.046Z,101340.88
2023-04-29T00:36:33.649Z,101342.69
2023-04-29T00:39:05.151Z,101343.63
2023-04-29T00:41:34.762Z,101342.22
2023-04-29T00:44:05.229Z,101339.16
2023-04-29T00:46:35.127Z,101346.34
2023-04-29T00:49:13.051Z,101347.28
2023-04-29T00:51:44.080Z,101341.16
2023-04-29T00:54:15.346Z,101334.19
2023-04-29T00:56:53.025Z,101335.13
2023-04-29T00:59:24.294Z,101334.69
2023-04-29T01:01:57.494Z,101343.41
2023-04-29T01:04:26.474Z,101348.69
2023-04-29T01:07:06.483Z,101352.16
2023-04-29T01:09:52.202Z,101351.72
2023-04-29T01:12:26.539Z,101358.84
2023-04-29T01:15:07.654Z,101349.53
2023-04-29T01:17:43.417Z,101355.41
2023-04-29T01:20:15.236Z,101356.50
2023-04-29T01:22:45.453Z,101357.72
2023-04-29T01:25:16.750Z,101351.78
2023-04-29T01:27:54.351Z,101352.91
2023-04-29T01:30:35.904Z,101357.16
2023-04-29T01:33:13.953Z,101350.00
2023-04-29T01:35:52.978Z,101351.19
2023-04-29T01:38:32.435Z,101343.84
2023-04-29T01:41:12.203Z,101347.78
2023-04-29T01:43:42.218Z,101346.84
2023-04-29T01:46:12.523Z,101342.69
2023-04-29T01:48:41.500Z,101354.03
2023-04-29T01:51:11.809Z,101340.91
2023-04-29T01:53:42.356Z,101347.13
2023-04-29T01:56:19.500Z,101349.88
2023-04-29T01:58:47.852Z,101354.50
2023-04-29T02:01:16.520Z,101354.50
2023-04-29T02:03:46.335Z,101353.38
2023-04-29T02:06:16.246Z,101351.69
2023-04-29T02:08:44.853Z,101342.91
2023-04-29T02:11:19.262Z,101346.41
2023-04-29T02:13:47.851Z,101349.78
2023-04-29T02:16:17.721Z,101354.41
2023-04-29T02:18:47.801Z,101350.84
2023-04-29T02:21:16.614Z,101350.16
2023-04-29T02:23:45.323Z,101349.91
2023-04-29T02:26:15.831Z,101351.47
2023-04-29T02:28:46.795Z,101353.38
2023-04-29T02:31:18.510Z,101348.09
2023-04-29T02:33:47.984Z,101356.75
2023-04-29T02:36:18.872Z,101349.69
2023-04-29T02:38:55.465Z,101354.03
2023-04-29T02:41:26.779Z,101356.56
2023-04-29T02:43:57.121Z,101357.81
2023-04-29T02:46:26.779Z,101368.16
2023-04-29T02:48:56.329Z,101369.66
2023-04-29T02:51:24.810Z,101367.88
2023-04-29T02:53:53.326Z,101376.56
2023-04-29T02:56:23.923Z,101368.56
2023-04-29T02:59:00.302Z,101370.91
2023-04-29T03:01:29.281Z,101361.19
2023-04-29T03:03:58.927Z,101365.63
2023-04-29T03:06:27.969Z,101370.81
2023-04-29T03:08:58.642Z,101372.88
2023-04-29T03:11:34.948Z,101370.25
2023-04-29T03:14:18.166Z,101369.09
2023-04-29T03:16:46.763Z,101376.72
2023-04-29T03:19:16.964Z,101377.56
2023-04-29T03:21:45.436Z,101382.84
2023-04-29T03:24:16.228Z,101387.94
2023-04-29T03:26:45.480Z,101399.28
2023-04-29T03:29:13.858Z,101395.31
2023-04-29T03:31:45.232Z,101394.00
2023-04-29T03:34:16.176Z,101386.06
2023-04-29T03:36:58.081Z,101381.53
2023-04-29T03:39:28.655Z,101387.75
2023-04-29T03:42:23.164Z,101387.28
2023-04-29T03:44:51.572Z,101385.84
2023-04-29T03:47:23.665Z,101383.75
2023-04-29T03:49:52.728Z,101386.75
2023-04-29T03:52:22.663Z,101393.53
2023-04-29T03:54:51.470Z,101389.53
2023-04-29T03:57:19.804Z,101382.25
2023-04-29T03:59:51.214Z,101378.56
2023-04-29T04:02:19.885Z,101375.72
2023-04-29T04:04:50.144Z,101376.56
2023-04-29T04:07:18.760Z,101380.72
2023-04-29T04:09:47.149Z,101376.16
2023-04-29T04:12:17.189Z,101382.19
2023-04-29T04:14:47.202Z,101379.44
2023-04-29T04:17:17.836Z,101383.88
2023-04-29T04:19:46.239Z,101389.06
2023-04-29T04:22:17.302Z,101393.81
2023-04-29T04:24:46.507Z,101387.03
2023-04-29T04:27:18.074Z,101390.63
2023-04-29T04:29:58.584Z,101388.81
2023-04-29T04:32:28.641Z,101383.84
2023-04-29T04:34:57.514Z,101388.47
2023-04-29T04:37:27.455Z,101391.22
2023-04-29T04:39:55.888Z,101398.22
2023-04-29T04:42:27.652Z,101384.88
2023-04-29T04:44:57.557Z,101390.47
2023-04-29T04:47:26.402Z,101387.81
2023-04-29T04:49:55.360Z,101387.94
2023-04-29T04:52:24.775Z,101395.69
2023-04-29T04:54:56.788Z,101390.94
2023-04-29T04:57:26.517Z,101396.75
2023-04-29T05:00:01.894Z,101393.06
2023-04-29T05:02:31.873Z,101400.88
2023-04-29T05:05:01.625Z,101405.34
2023-04-29T05:07:31.481Z,101407.88
2023-04-29T05:10:07.051Z,101402.16
2023-04-29T05:12:35.533Z,101403.66
2023-04-29T05:15:06.484Z,101406.00
2023-04-29T05:17:36.816Z,101406.00
2023-04-29T05:20:06.093Z,101413.72
2023-04-29T05:22:36.613Z,101417.03
2023-04-29T05:25:09.539Z,101409.94
2023-04-29T05:27:37.994Z,101420.38
2023-04-29T05:30:07.520Z,101431.72
2023-04-29T05:32:36.028Z,101440.38
2023-04-29T05:35:07.744Z,101434.91
2023-04-29T05:37:36.946Z,101434.38
2023-04-29T05:40:06.337Z,101447.28
2023-04-29T05:42:36.465Z,101441.78
2023-04-29T05:45:08.855Z,101446.03
2023-04-29T05:47:37.469Z,101445.19
2023-04-29T05:50:06.708Z,101442.88
2023-04-29T05:52:35.080Z,101441.16
2023-04-29T05:55:03.518Z,101448.53
2023-04-29T05:57:35.840Z,101452.03
2023-04-29T06:00:07.102Z,101451.84
2023-04-29T06:02:41.590Z,101456.28
2023-04-29T06:05:17.754Z,101456.41
2023-04-29T06:07:46.967Z,101459.03
2023-04-29T06:10:15.430Z,101457.31
2023-04-29T06:12:45.166Z,101459.03
2023-04-29T06:15:13.998Z,101464.22
2023-04-29T06:17:43.270Z,101457.84
2023-04-29T06:20:12.963Z,101465.47
2023-04-29T06:22:42.463Z,101467.81
2023-04-29T06:25:12.674Z,101473.69
2023-04-29T06:27:41.215Z,101485.50
2023-04-29T06:30:13.265Z,101492.19
2023-04-29T06:32:42.470Z,101489.88
2023-04-29T06:35:11.514Z,101490.94
2023-04-29T06:37:42.483Z,101493.34
2023-04-29T06:40:13.270Z,101494.72
2023-04-29T06:42:41.550Z,101500.13
2023-04-29T06:45:12.915Z,101500.25
2023-04-29T06:47:41.704Z,101501.81
2023-04-29T06:50:11.639Z,101507.66
2023-04-29T06:52:40.942Z,101511.91
2023-04-29T06:55:11.514Z,101514.34
2023-04-29T06:57:41.134Z,101514.34
2023-04-29T07:00:14.703Z,101521.03
2023-04-29T07:02:45.908Z,101517.88
2023-04-29T07:05:15.606Z,101524.31
2023-04-29T07:07:43.899Z,101521.16
2023-04-29T07:10:12.567Z,101519.84
2023-04-29T07:12:40.850Z,101522.94
2023-04-29T07:15:11.819Z,101523.34
2023-04-29T07:17:48.137Z,101526.84
2023-04-29T07:20:20.723Z,101524.09
2023-04-29T07:22:51.867Z,101528.56
2023-04-29T07:25:25.798Z,101533.72
2023-04-29T07:27:54.678Z,101537.09
2023-04-29T07:30:25.407Z,101529.06
2023-04-29T07:32:57.019Z,101537.75
2023-04-29T07:35:26.055Z,101533.94
2023-04-29T07:37:54.758Z,101532.44
2023-04-29T07:40:23.717Z,101540.69
2023-04-29T07:42:56.030Z,101541.09
2023-04-29T07:45:25.379Z,101540.88
2023-04-29T07:47:57.487Z,101537.97
2023-04-29T07:50:26.401Z,101534.16
2023-04-29T07:52:58.361Z,101534.34
2023-04-29T07:55:32.023Z,101539.41
2023-04-29T07:58:00.856Z,101535.38
2023-04-29T08:00:33.606Z,101538.28
2023-04-29T08:03:04.488Z,101532.56
2023-04-29T08:05:34.129Z,101535.09
2023-04-29T08:08:03.011Z,101538.38
2023-04-29T08:10:32.224Z,101536.56
2023-04-29T08:13:00.684Z,101539.72
2023-04-29T08:15:29.917Z,101537.50
2023-04-29T08:17:58.427Z,101544.78
2023-04-29T08:20:29.468Z,101541.84
2023-04-29T08:23:01.729Z,101547.44
2023-04-29T08:25:31.225Z,101542.00
2023-04-29T08:27:59.879Z,101547.44
2023-04-29T08:30:28.596Z,101551.59
2023-04-29T08:32:57.368Z,101546.31
2023-04-29T08:35:27.346Z,101547.31
2023-04-29T08:37:55.557Z,101548.47
2023-04-29T08:40:24.933Z,101549.22
2023-04-29T08:42:55.699Z,101551.13
2023-04-29T08:45:26.374Z,101549.94
2023-04-29T08:47:56.624Z,101549.38
2023-04-29T08:50:26.081Z,101552.69
2023-04-29T08:52:57.303Z,101549.34
2023-04-29T08:55:26.324Z,101544.88
2023-04-29T08:57:56.812Z,101546.13
2023-04-29T09:00:26.894Z,101550.09
2023-04-29T09:02:57.912Z,101549.75
2023-04-29T09:05:28.114Z,101548.06
2023-04-29T09:08:00.202Z,101538.78
2023-04-29T09:10:29.566Z,101540.97
2023-04-29T09:12:59.157Z,101543.00
2023-04-29T09:15:30.578Z,101544.16
2023-04-29T09:17:59.214Z,101539.91
2023-04-29T09:20:29.387Z,101534.59
2023-04-29T09:23:01.759Z,101538.09
2023-04-29T09:25:31.463Z,101536.50
2023-04-29T09:27:59.768Z,101541.28
2023-04-29T09:30:28.614Z,101544.84
2023-04-29T09:33:08.582Z,101542.72
2023-04-29T09:35:37.538Z,101541.72
2023-04-29T09:38:18.639Z,101543.72
2023-04-29T09:40:58.877Z,101542.13
2023-04-29T09:43:28.637Z,101537.72
2023-04-29T09:45:57.156Z,101533.22
2023-04-29T09:48:33.914Z,101521.78
2023-04-29T09:51:04.376Z,101528.38
2023-04-29T09:53:38.269Z,101522.72
2023-04-29T09:56:07.667Z,101521.69
2023-04-29T09:58:39.250Z,101510.31
2023-04-29T10:01:08.532Z,101510.31
2023-04-29T10:03:38.837Z,101506.13
2023-04-29T10:06:09.418Z,101498.69
2023-04-29T10:08:41.846Z,101499.25
2023-04-29T10:11:13.623Z,101494.16
2023-04-29T10:14:19.736Z,101485.69
2023-04-29T10:17:10.361Z,101478.44
2023-04-29T10:19:54.760Z,101464.34
2023-04-29T10:22:33.963Z,101464.59
2023-04-29T10:25:05.047Z,101434.97
2023-04-29T10:27:45.025Z,101448.41
2023-04-29T10:30:15.632Z,101442.16
2023-04-29T10:35:25.977Z,101460.16
2023-04-29T10:37:57.888Z,101451.88
2023-04-29T10:40:38.766Z,101451.69
2023-04-29T10:43:07.333Z,101446.97
2023-04-29T10:45:36.931Z,101452.00
2023-04-29T10:48:16.549Z,101458.34
2023-04-29T10:51:11.040Z,101459.72
2023-04-29T10:54:07.976Z,101463.69
2023-04-29T10:56:45.353Z,101484.31
2023-04-29T10:59:23.555Z,101471.03
2023-04-29T11:02:16.169Z,101471.41
2023-04-29T11:05:15.610Z,101475.78
2023-04-29T11:07:50.277Z,101479.50
2023-04-29T11:10:25.868Z,101480.06
2023-04-29T11:13:27.441Z,101468.91
2023-04-29T11:16:41.177Z,101486.38
2023-04-29T11:19:55.941Z,101489.03
2023-04-29T11:22:42.532Z,101497.38
2023-04-29T11:25:16.153Z,101507.63
2023-04-29T11:28:17.621Z,101503.94
2023-04-29T11:31:51.644Z,101516.16
2023-04-29T11:34:47.540Z,101515.16
2023-04-29T11:37:28.686Z,101510.28
2023-04-29T11:40:05.324Z,101512.22
2023-04-29T11:42:45.771Z,101503.66
2023-04-29T11:45:22.757Z,101502.88
2023-04-29T11:47:53.941Z,101491.63
2023-04-29T11:50:34.090Z,101472.81
2023-04-29T11:53:04.135Z,101458.09
2023-04-29T11:55:33.046Z,101447.75
2023-04-29T11:58:09.796Z,101444.72
2023-04-29T12:00:59.683Z,101438.38
2023-04-29T12:03:28.403Z,101432.06
2023-04-29T12:05:59.454Z,101434.22
2023-04-29T12:08:29.585Z,101419.31
2023-04-29T12:11:02.893Z,101421.44
2023-04-29T12:13:32.769Z,101416.81
2023-04-29T12:16:01.898Z,101412.16
2023-04-29T12:18:31.350Z,101411.78
2023-04-29T12:21:01.570Z,101421.47
2023-04-29T12:23:32.385Z,101407.38
2023-04-29T12:26:17.402Z,101401.88
2023-04-29T12:28:47.318Z,101410.75
2023-04-29T12:31:17.798Z,101409.72
2023-04-29T12:33:46.529Z,101409.59
2023-04-29T12:36:21.276Z,101401.22
2023-04-29T12:38:50.382Z,101399.00
2023-04-29T12:41:23.776Z,101391.09
2023-04-29T12:43:52.765Z,101386.16
2023-04-29T12:46:23.503Z,101391.56
2023-04-29T12:48:53.067Z,101394.00
2023-04-29T12:51:23.216Z,101388.84
2023-04-29T12:53:52.853Z,101397.78
2023-04-29T12:56:48.522Z,101394.66
2023-04-29T12:59:19.706Z,101399.03
2023-04-29T13:02:02.367Z,101404.84
2023-04-29T13:04:35.001Z,101399.94
2023-04-29T13:07:05.951Z,101392.25
2023-04-29T13:09:35.563Z,101389.31
2023-04-29T13:12:04.294Z,101392.44
2023-04-29T13:14:32.721Z,101392.69
2023-04-29T13:17:01.284Z,101380.00
2023-04-29T13:19:46.749Z,101384.91
2023-04-29T13:22:21.922Z,101391.59
2023-04-29T13:24:53.873Z,101383.09
2023-04-29T13:27:23.012Z,101378.75
2023-04-29T13:29:51.750Z,101381.03
2023-04-29T13:32:24.889Z,101369.44
2023-04-29T13:34:56.637Z,101363.25
2023-04-29T13:37:27.811Z,101354.81
2023-04-29T13:39:57.545Z,101360.94
2023-04-29T13:42:27.381Z,101351.72
2023-04-29T13:44:57.499Z,101358.28
2023-04-29T13:47:28.221Z,101362.00
2023-04-29T13:50:36.929Z,101368.47
2023-04-29T14:01:05.386Z,101337.44
2023-04-29T14:03:21.870Z,101335.94
2023-04-29T14:05:51.551Z,101332.72
2023-04-29T14:08:21.333Z,101331.19
2023-04-29T14:10:50.224Z,101327.72
2023-04-29T14:13:22.236Z,101325.72
2023-04-29T14:15:50.849Z,101313.34
2023-04-29T14:18:19.489Z,101314.22
2023-04-29T14:20:48.247Z,101310.28
2023-04-29T14:23:17.169Z,101308.72
2023-04-29T14:25:47.826Z,101307.31
2023-04-29T14:28:16.616Z,101309.66
2023-04-29T14:30:46.972Z,101307.00
2023-04-29T14:33:15.775Z,101308.09
2023-04-29T14:35:44.153Z,101323.91
2023-04-29T14:38:13.683Z,101318.22
2023-04-29T14:40:42.900Z,101319.66
2023-04-29T14:43:13.154Z,101317.66
2023-04-29T14:45:41.902Z,101317.34
2023-04-29T14:48:10.512Z,101331.53
2023-04-29T14:50:46.672Z,101342.47
2023-04-29T14:53:15.265Z,101348.53
2023-04-29T14:55:43.727Z,101361.06
2023-04-29T14:58:14.829Z,101359.88
2023-04-29T15:00:43.368Z,101359.44
2023-04-29T15:03:20.188Z,101362.97
2023-04-29T15:05:52.186Z,101359.84
2023-04-29T15:08:21.286Z,101365.31
2023-04-29T15:10:50.175Z,101377.59
2023-04-29T15:13:20.598Z,101391.84
2023-04-29T15:15:51.175Z,101396.91
2023-04-29T15:18:20.573Z,101399.75
2023-04-29T15:20:49.971Z,101422.63
2023-04-29T15:23:27.487Z,101420.66
2023-04-29T15:25:56.066Z,101373.59
2023-04-29T15:28:27.681Z,101345.84
2023-04-29T15:30:56.507Z,101339.19
2023-04-29T15:33:26.344Z,101328.34
2023-04-29T15:35:54.604Z,101314.13
2023-04-29T15:38:25.537Z,101307.63
2023-04-29T15:41:01.704Z,101305.94
2023-04-29T15:43:32.815Z,101305.72
2023-04-29T15:46:03.279Z,101294.72
2023-04-29T15:48:43.000Z,101286.13
2023-04-29T15:51:14.127Z,101289.94
2023-04-29T15:53:43.854Z,101287.69
2023-04-29T15:56:12.854Z,101290.47
2023-04-29T15:58:43.191Z,101274.66
2023-04-29T16:01:12.046Z,101279.38
2023-04-29T16:03:44.145Z,101274.66
2023-04-29T16:06:24.940Z,101276.47
2023-04-29T16:08:53.714Z,101273.28
2023-04-29T16:11:22.129Z,101268.59
2023-04-29T16:13:53.155Z,101262.44
2023-04-29T16:16:21.876Z,101266.78
2023-04-29T16:19:09.626Z,101280.00
2023-04-29T16:21:38.871Z,101278.47
2023-04-29T16:24:09.450Z,101276.59
2023-04-29T16:26:40.478Z,101268.84
2023-04-29T16:29:12.604Z,101262.81
2023-04-29T16:31:43.808Z,101256.94
2023-04-29T16:34:13.590Z,101264.63
2023-04-29T16:36:42.064Z,101270.13
2023-04-29T16:39:10.536Z,101269.72
2023-04-29T16:41:39.009Z,101274.94
2023-04-29T16:44:07.265Z,101286.03
2023-04-29T16:46:38.754Z,101293.53
2023-04-29T16:49:09.276Z,101296.03
2023-04-29T16:51:44.563Z,101299.06
2023-04-29T16:54:17.400Z,101300.06
2023-04-29T16:56:48.833Z,101308.19
2023-04-29T16:59:33.957Z,101325.00
2023-04-29T17:02:05.096Z,101324.69
2023-04-29T17:04:35.886Z,101325.13
2023-04-29T17:07:05.989Z,101334.66
2023-04-29T17:09:34.831Z,101349.50
2023-04-29T17:12:04.232Z,101360.19
2023-04-29T17:14:32.596Z,101382.50
2023-04-29T17:17:02.085Z,101419.34
2023-04-29T17:22:42.081Z,101506.47
2023-04-29T17:25:11.152Z,101528.38
2023-04-29T17:27:39.624Z,101537.56
2023-04-29T17:30:10.289Z,101543.81
2023-04-29T17:32:39.500Z,101543.72
2023-04-29T17:35:11.960Z,101547.97
2023-04-29T17:37:41.060Z,101539.13
2023-04-29T17:40:11.250Z,101550.69
2023-04-29T17:42:39.710Z,101562.31
2023-04-29T17:45:10.028Z,101557.84
2023-04-29T17:47:38.756Z,101567.22
2023-04-29T17:50:10.447Z,101556.94
2023-04-29T17:52:39.037Z,101562.81
2023-04-29T17:55:10.744Z,101566.53
2023-04-29T17:57:40.484Z,101567.00
2023-04-29T18:00:12.329Z,101561.56
2023-04-29T18:02:40.996Z,101571.25
2023-04-29T18:05:11.386Z,101561.22
2023-04-29T18:07:39.774Z,101567.22
2023-04-29T18:10:10.247Z,101568.03
2023-04-29T18:12:39.163Z,101575.66
2023-04-29T18:15:10.258Z,101569.81
2023-04-29T18:17:39.062Z,101568.25
2023-04-29T18:23:49.440Z,101567.13
2023-04-29T18:26:18.590Z,101562.66
2023-04-29T18:28:48.238Z,101573.53
2023-04-29T18:31:18.276Z,101564.47
2023-04-29T18:33:47.340Z,101571.00
2023-04-29T18:36:16.473Z,101579.13
2023-04-29T18:38:45.020Z,101583.97
2023-04-29T18:41:15.059Z,101585.53
2023-04-29T18:43:44.206Z,101589.22
2023-04-29T18:46:13.771Z,101555.22
2023-04-29T18:48:42.693Z,101504.50
2023-04-29T18:51:12.584Z,101448.53
2023-04-29T18:53:40.983Z,101402.31
2023-04-29T18:56:09.816Z,101403.81
2023-04-29T18:58:40.254Z,101397.28
2023-04-29T19:01:08.922Z,101394.72
2023-04-29T19:03:37.406Z,101403.09
2023-04-29T19:06:06.120Z,101396.38
2023-04-29T19:08:34.804Z,101399.06
2023-04-29T19:11:06.435Z,101408.28
2023-04-29T19:13:35.178Z,101423.59
2023-04-29T19:16:05.698Z,101431.22
2023-04-29T19:18:34.715Z,101441.44
2023-04-29T19:21:03.142Z,101450.09
2023-04-29T19:23:32.450Z,101454.88
2023-04-29T19:26:02.214Z,101461.22
2023-04-29T19:28:31.578Z,101465.72
2023-04-29T19:31:02.564Z,101464.13
2023-04-29T19:33:33.116Z,101465.28
2023-04-29T19:36:04.870Z,101475.59
2023-04-29T19:38:33.251Z,101479.22
2023-04-29T19:41:01.718Z,101475.66
2023-04-29T19:43:32.027Z,101483.81
2023-04-29T19:46:00.644Z,101487.38
2023-04-29T19:48:29.510Z,101487.13
2023-04-29T19:50:59.836Z,101495.81
2023-04-29T19:53:30.105Z,101511.91
2023-04-29T19:55:58.811Z,101516.69
2023-04-29T19:58:28.358Z,101519.59
2023-04-29T20:00:57.044Z,101539.06
2023-04-29T20:03:25.754Z,101527.94
2023-04-29T20:05:54.987Z,101528.03
2023-04-29T20:08:24.976Z,101531.19
2023-04-29T20:10:54.535Z,101537.34
2023-04-29T20:13:24.110Z,101544.69
2023-04-29T20:15:53.411Z,101541.69
2023-04-29T20:18:24.939Z,101548.44
2023-04-29T20:20:53.640Z,101558.84
2023-04-29T20:23:22.107Z,101558.25
2023-04-29T20:25:53.603Z,101560.41
2023-04-29T20:28:22.092Z,101566.81
2023-04-29T20:30:53.082Z,101577.44
2023-04-29T20:33:21.725Z,101576.97
2023-04-29T20:35:50.211Z,101587.38
2023-04-29T20:38:18.733Z,101583.47
2023-04-29T20:40:47.421Z,101583.59
2023-04-29T20:43:18.005Z,101578.66
2023-04-29T20:45:46.409Z,101581.41
2023-04-29T20:48:15.001Z,101581.88
2023-04-29T20:50:43.402Z,101588.91
2023-04-29T20:53:12.045Z,101576.94
2023-04-29T20:55:40.855Z,101579.00
2023-04-29T20:58:09.647Z,101576.94
2023-04-29T21:00:40.835Z,101575.38
2023-04-29T21:03:09.667Z,101572.94
2023-04-29T21:05:38.312Z,101584.91
2023-04-29T21:08:07.559Z,101580.44
2023-04-29T21:10:36.657Z,101579.31
2023-04-29T21:13:07.640Z,101585.47
2023-04-29T21:15:37.943Z,101586.56
2023-04-29T21:18:08.726Z,101578.69
2023-04-29T21:20:37.529Z,101577.16
2023-04-29T21:23:07.076Z,101575.09
2023-04-29T21:25:35.673Z,101567.13
2023-04-29T21:28:04.856Z,101569.19
2023-04-29T21:30:33.505Z,101560.16
2023-04-29T21:33:03.243Z,101566.06
2023-04-29T21:35:33.104Z,101570.41
2023-04-29T21:38:01.660Z,101564.53
2023-04-29T21:40:31.960Z,101569.09
2023-04-29T21:43:01.191Z,101558.94
2023-04-29T21:45:29.800Z,101556.53
2023-04-29T21:48:08.314Z,101564.00
2023-04-29T21:50:39.338Z,101561.97
2023-04-29T21:53:08.180Z,101554.00
2023-04-29T21:55:38.859Z,101553.03
2023-04-29T21:58:08.943Z,101551.44
2023-04-29T22:00:39.598Z,101548.69
2023-04-29T22:03:09.652Z,101536.47
2023-04-29T22:05:40.673Z,101529.47
2023-04-29T22:08:09.377Z,101528.72
2023-04-29T22:10:40.833Z,101532.72
2023-04-29T22:13:09.648Z,101524.75
2023-04-29T22:15:38.597Z,101525.59
2023-04-29T22:18:08.422Z,101523.91
2023-04-29T22:20:37.162Z,101518.13
2023-04-29T22:23:07.814Z,101522.69
2023-04-29T22:25:37.503Z,101531.28
2023-04-29T22:28:06.263Z,101527.44
2023-04-29T22:30:35.627Z,101514.63
2023-04-29T22:33:03.968Z,101518.75
2023-04-29T22:35:32.441Z,101511.59
2023-04-29T22:38:01.109Z,101509.91
2023-04-29T22:40:34.057Z,101507.59
2023-04-29T22:43:03.785Z,101510.41
2023-04-29T22:45:35.445Z,101513.41
2023-04-29T22:48:03.996Z,101505.41
2023-04-29T22:50:32.835Z,101514.25
2023-04-29T22:53:01.832Z,101515.22
2023-04-29T22:55:33.019Z,101510.41
2023-04-29T22:58:01.369Z,101515.31
2023-04-29T23:00:29.963Z,101512.06
2023-04-29T23:02:59.440Z,101504.22
2023-04-29T23:05:30.347Z,101509.03
2023-04-29T23:08:00.181Z,101510.34
2023-04-29T23:10:29.673Z,101515.53
2023-04-29T23:13:00.962Z,101510.72
2023-04-29T23:15:36.289Z,101511.91
2023-04-29T23:18:05.244Z,101510.78
2023-04-29T23:20:35.090Z,101506.09
2023-04-29T23:23:03.954Z,101504.50
2023-04-29T23:25:32.466Z,101502.47
2023-04-29T23:28:03.521Z,101505.72
2023-04-29T23:30:33.328Z,101499.69
2023-04-29T23:33:03.096Z,101497.41
2023-04-29T23:35:31.912Z,101496.53
2023-04-29T23:38:00.496Z,101502.59
2023-04-29T23:40:30.215Z,101503.44
2023-04-29T23:43:03.113Z,101505.59
2023-04-29T23:45:33.167Z,101506.56
2023-04-29T23:48:02.037Z,101507.69
2023-04-29T23:50:30.781Z,101494.16
2023-04-29T23:52:59.160Z,101503.94
2023-04-29T23:55:27.778Z,101501.16
2023-04-29T23:57:56.327Z,101494.50
